Terminal Aerodrome Forecast
Issued by NWS

Current Version | Previous Version | Graphics & Text | Print | Product List | Glossary On
Versions: 1 2 3 4 5 6 7 8 9 10 11 12 13 14 15 16 17 18 19
000
FTUS41 KRNK 291403 AAA
TAFLWB
TAF AMD
KLWB 291403Z 2914/3012 24006KT 6SM -SHRA SCT020 OVC050
      TEMPO 2914/2916 3SM -SHRA BR OVC018
     FM291600 28008G16KT P6SM -RA BKN020 OVC030
     FM291800 30010KT P6SM BKN025
     FM292100 30005KT P6SM SCT030
     FM300900 00000KT 1/2SM FG SCT002=

USA.gov is the U.S. government's official web portal to all federal, state and local government web resources and services.